Time;durP1;ratioP1;P1;durP2;ratioP2;P2;SDS_P1;SDS_P2;PMS_P1;PMS_P2;Temp;Humidity;BMP_temperature;BMP_pressure;BME280_temperature;BME280_humidity;BME280_pressure;Samples;Min_cycle;Max_cycle;Signal;HPM_P1;HPM_P2
2022/09/27 00:00:21;;;;;;;;;;;;;;;;;;8411757;27;27347;-76
2022/09/27 00:04:21;;;;;;;;;;;;;;;;;;8414211;27;28885;-76
2022/09/27 00:08:21;;;;;;;;;;;;;;;;;;8412005;27;28124;-77
2022/09/27 00:12:21;;;;;;;;;;;;;;;;;;8412040;27;28094;-75
2022/09/27 00:16:21;;;;;;;;;;;;;;;;;;8399443;27;28327;-76
2022/09/27 00:20:22;;;;;;;;;;;;;;;;;;8396968;27;28584;-76
2022/09/27 00:24:22;;;;;;;;;;;;;;;;;;8413887;27;27808;-74
2022/09/27 00:28:22;;;;;;;;;;;;;;;;;;8414803;27;27430;-76
2022/09/27 00:32:22;;;;;;;;;;;;;;;;;;8396038;27;28565;-76
2022/09/27 00:36:22;;;;;;;;;;;;;;;;;;8412411;27;27342;-76
2022/09/27 00:40:23;;;;;;;;;;;;;;;;;;8395157;27;28695;-76
2022/09/27 00:44:23;;;;;;;;;;;;;;;;;;8414119;27;27131;-76
2022/09/27 00:48:23;;;;;;;;;;;;;;;;;;8410812;27;27112;-76
2022/09/27 00:52:23;;;;;;;;;;;;;;;;;;8410793;27;27359;-77
2022/09/27 00:56:23;;;;;;;;;;;;;;;;;;8411573;27;27542;-76
2022/09/27 01:00:23;;;;;;;;;;;;;;;;;;8409388;27;27908;-76
2022/09/27 01:04:23;;;;;;;;;;;;;;;;;;8399865;27;28652;-76
2022/09/27 01:08:24;;;;;;;;;;;;;;;;;;8419310;27;27478;-75
2022/09/27 01:12:24;;;;;;;;;;;;;;;;;;8413190;27;27498;-74
2022/09/27 01:16:24;;;;;;;;;;;;;;;;;;8397698;27;28223;-75
2022/09/27 01:20:24;;;;;;;;;;;;;;;;;;8408206;27;28714;-75
2022/09/27 01:24:25;;;;;;;;;;;;;;;;;;8396548;27;46861;-75
2022/09/27 01:28:25;;;;;;;;;;;;;;;;;;8416801;27;27442;-75
2022/09/27 01:32:25;;;;;;;;;;;;;;;;;;8412850;27;27370;-75
2022/09/27 01:36:26;;;;;;;;;;;;;;;;;;8399458;27;28248;-76
2022/09/27 01:40:27;;;;;;;;;;;;;;;;;;8396897;27;28179;-76
2022/09/27 01:44:27;;;;;;;;;;;;;;;;;;8398658;27;28719;-76
2022/09/27 01:48:27;;;;;;;;;;;;;;;;;;8410637;27;27363;-76
2022/09/27 01:52:28;;;;;;;;;;;;;;;;;;8410008;27;28140;-75
2022/09/27 01:56:28;;;;;;;;;;;;;;;;;;8395998;27;29327;-76
2022/09/27 02:00:28;;;;;;;;;;;;;;;;;;8415383;27;27303;-75
2022/09/27 02:04:28;;;;;;;;;;;;;;;;;;8411588;27;27301;-76
2022/09/27 02:08:28;;;;;;;;;;;;;;;;;;8397930;27;28322;-76
2022/09/27 02:12:29;;;;;;;;;;;;;;;;;;8408725;27;27824;-76
2022/09/27 02:16:30;;;;;;;;;;;;;;;;;;8405918;27;27444;-76
2022/09/27 02:20:30;;;;;;;;;;;;;;;;;;8395121;27;28213;-76
2022/09/27 02:24:30;;;;;;;;;;;;;;;;;;8398287;27;28940;-76
2022/09/27 02:28:30;;;;;;;;;;;;;;;;;;8415425;27;27069;-76
2022/09/27 02:32:31;;;;;;;;;;;;;;;;;;8411198;27;27124;-76
2022/09/27 02:36:31;;;;;;;;;;;;;;;;;;8414149;27;27395;-76
2022/09/27 02:40:34;;;;;;;;;;;;;;;;;;8411468;27;28320;-76
2022/09/27 02:44:34;;;;;;;;;;;;;;;;;;8403365;27;29169;-76
2022/09/27 02:48:34;;;;;;;;;;;;;;;;;;8419758;27;29349;-76
2022/09/27 02:52:35;;;;;;;;;;;;;;;;;;8402084;27;28146;-76
2022/09/27 02:56:35;;;;;;;;;;;;;;;;;;8403849;27;28973;-75
2022/09/27 03:00:35;;;;;;;;;;;;;;;;;;8414618;27;28101;-75
2022/09/27 03:04:35;;;;;;;;;;;;;;;;;;8395727;27;28639;-74
2022/09/27 03:08:35;;;;;;;;;;;;;;;;;;8414173;27;27219;-75
2022/09/27 03:12:35;;;;;;;;;;;;;;;;;;8418646;27;27902;-76
2022/09/27 03:16:36;;;;;;;;;;;;;;;;;;8401055;27;27400;-74
2022/09/27 03:20:36;;;;;;;;;;;;;;;;;;8398504;27;29405;-75
2022/09/27 03:24:36;;;;;;;;;;;;;;;;;;8395947;27;27477;-75
2022/09/27 03:28:36;;;;;;;;;;;;;;;;;;8401921;27;28560;-75
2022/09/27 03:32:36;;;;;;;;;;;;;;;;;;8411619;27;28454;-76
2022/09/27 03:36:36;;;;;;;;;;;;;;;;;;8415333;27;27733;-76
2022/09/27 03:40:36;;;;;;;;;;;;;;;;;;8414253;27;27734;-76
2022/09/27 03:44:37;;;;;;;;;;;;;;;;;;8411303;27;27361;-75
2022/09/27 03:48:37;;;;;;;;;;;;;;;;;;8396808;27;28316;-76
2022/09/27 03:52:37;;;;;;;;;;;;;;;;;;8413006;27;28075;-75
2022/09/27 03:56:37;;;;;;;;;;;;;;;;;;8415074;27;28025;-75
2022/09/27 04:00:37;;;;;;;;;;;;;;;;;;8414645;27;28230;-76
2022/09/27 04:04:37;;;;;;;;;;;;;;;;;;8411948;27;27744;-75
2022/09/27 04:08:37;;;;;;;;;;;;;;;;;;8413343;27;28923;-76
2022/09/27 04:12:38;;;;;;;;;;;;;;;;;;8402135;27;28727;-76
2022/09/27 04:16:39;;;;;;;;;;;;;;;;;;8413395;27;28957;-75
2022/09/27 04:20:39;;;;;;;;;;;;;;;;;;8416177;27;27729;-75
2022/09/27 04:24:39;;;;;;;;;;;;;;;;;;8399903;27;28623;-76
2022/09/27 04:28:39;;;;;;;;;;;;;;;;;;8415730;27;27340;-75
2022/09/27 04:32:40;;;;;;;;;;;;;;;;;;8412627;27;27274;-76
2022/09/27 04:36:40;;;;;;;;;;;;;;;;;;8412054;27;27307;-75
2022/09/27 04:40:40;;;;;;;;;;;;;;;;;;8394020;27;28617;-75
2022/09/27 04:44:40;;;;;;;;;;;;;;;;;;8410303;27;27354;-76
2022/09/27 04:48:41;;;;;;;;;;;;;;;;;;8412007;27;27575;-76
2022/09/27 04:52:41;;;;;;;;;;;;;;;;;;8411174;27;27408;-75
2022/09/27 04:56:41;;;;;;;;;;;;;;;;;;8416726;27;28147;-76
2022/09/27 05:00:42;;;;;;;;;;;;;;;;;;8415510;27;28288;-75
2022/09/27 05:04:42;;;;;;;;;;;;;;;;;;8392395;27;28340;-75
2022/09/27 05:08:42;;;;;;;;;;;;;;;;;;8412248;27;29447;-76
2022/09/27 05:12:42;;;;;;;;;;;;;;;;;;8411743;27;28831;-75
2022/09/27 05:16:42;;;;;;;;;;;;;;;;;;8397959;27;46224;-77
2022/09/27 05:20:43;;;;;;;;;;;;;;;;;;8395625;27;28595;-76
2022/09/27 05:24:43;;;;;;;;;;;;;;;;;;8400311;27;28418;-75
2022/09/27 05:28:46;;;;;;;;;;;;;;;;;;8398221;27;28483;-75
2022/09/27 05:32:49;;;;;;;;;;;;;;;;;;8412900;27;28235;-76
2022/09/27 05:36:49;;;;;;;;;;;;;;;;;;8408813;27;27439;-75
2022/09/27 05:40:50;;;;;;;;;;;;;;;;;;8404761;27;27853;-75
2022/09/27 05:44:51;;;;;;;;;;;;;;;;;;8407745;27;27185;-75
2022/09/27 05:48:51;;;;;;;;;;;;;;;;;;8413264;27;27460;-75
2022/09/27 05:52:51;;;;;;;;;;;;;;;;;;8409818;27;27353;-76
2022/09/27 05:56:51;;;;;;;;;;;;;;;;;;8410738;27;27204;-76
2022/09/27 06:00:51;;;;;;;;;;;;;;;;;;8413138;27;28392;-76
2022/09/27 06:04:52;;;;;;;;;;;;;;;;;;8395933;27;28246;-75
2022/09/27 06:08:52;;;;;;;;;;;;;;;;;;8410365;27;27697;-75
2022/09/27 06:12:52;;;;;;;;;;;;;;;;;;8408295;27;28198;-76
2022/09/27 06:16:53;;;;;;;;;;;;;;;;;;8414624;27;27759;-76
2022/09/27 06:20:54;;;;;;;;;;;;;;;;;;8416630;27;27279;-75
2022/09/27 06:24:54;;;;;;;;;;;;;;;;;;8398807;27;27500;-75
2022/09/27 06:28:54;;;;;;;;;;;;;;;;;;8414700;27;27593;-75
2022/09/27 06:32:54;;;;;;;;;;;;;;;;;;8416720;27;27377;-76
2022/09/27 06:36:56;;;;;;;;;;;;;;;;;;8416789;27;27325;-76
2022/09/27 06:40:57;;;;;;;;;;;;;;;;;;8420037;27;28089;-76
2022/09/27 06:44:57;;;;;;;;;;;;;;;;;;8417537;27;27482;-76
2022/09/27 06:48:57;;;;;;;;;;;;;;;;;;8416042;27;28609;-76
2022/09/27 06:52:57;;;;;;;;;;;;;;;;;;8400351;27;28129;-76
2022/09/27 06:56:57;;;;;;;;;;;;;;;;;;8400509;27;27460;-77
2022/09/27 07:00:57;;;;;;;;;;;;;;;;;;8401127;27;28444;-76
2022/09/27 07:04:58;;;;;;;;;;;;;;;;;;8408448;27;28485;-76
2022/09/27 07:08:59;;;;;;;;;;;;;;;;;;8401785;27;28433;-76
2022/09/27 07:12:59;;;;;;;;;;;;;;;;;;8408136;27;27419;-75
2022/09/27 07:16:59;;;;;;;;;;;;;;;;;;8415202;27;28573;-76
2022/09/27 07:21:00;;;;;;;;;;;;;;;;;;8403406;27;28394;-77
2022/09/27 07:25:00;;;;;;;;;;;;;;;;;;8405554;27;28682;-77
2022/09/27 07:29:00;;;;;;;;;;;;;;;;;;8417312;27;27492;-76
2022/09/27 07:33:01;;;;;;;;;;;;;;;;;;8404255;27;27235;-76
2022/09/27 07:37:04;;;;;;;;;;;;;;;;;;8405401;27;28191;-76
2022/09/27 07:41:04;;;;;;;;;;;;;;;;;;8414321;27;27554;-75
2022/09/27 07:45:05;;;;;;;;;;;;;;;;;;8414325;27;27590;-76
2022/09/27 07:49:05;;;;;;;;;;;;;;;;;;8416304;27;27429;-77
2022/09/27 07:53:05;;;;;;;;;;;;;;;;;;8416470;27;27965;-77
2022/09/27 07:57:05;;;;;;;;;;;;;;;;;;8413111;27;29137;-76
2022/09/27 08:01:06;;;;;;;;;;;;;;;;;;8401487;27;28462;-76
2022/09/27 08:05:06;;;;;;;;;;;;;;;;;;8414778;27;46383;-76
2022/09/27 08:09:08;;;;;;;;;;;;;;;;;;8410969;27;28063;-76
2022/09/27 08:13:08;;;;;;;;;;;;;;;;;;8405601;27;28578;-77
2022/09/27 08:17:08;;;;;;;;;;;;;;;;;;8396726;27;27879;-77
2022/09/27 08:21:09;;;;;;;;;;;;;;;;;;8400706;27;27191;-75
2022/09/27 08:25:09;;;;;;;;;;;;;;;;;;8398190;27;27770;-76
2022/09/27 08:29:09;;;;;;;;;;;;;;;;;;8401341;27;27260;-77
2022/09/27 08:33:09;;;;;;;;;;;;;;;;;;8417049;27;27499;-76
2022/09/27 08:37:09;;;;;;;;;;;;;;;;;;8412004;27;28224;-77
2022/09/27 08:41:09;;;;;;;;;;;;;;;;;;8392033;27;28608;-76
2022/09/27 08:45:10;;;;;;;;;;;;;;;;;;8400716;27;28353;-76
2022/09/27 08:49:10;;;;;;;;;;;;;;;;;;8402594;27;28105;-76
2022/09/27 08:53:10;;;;;;;;;;;;;;;;;;8415978;27;46613;-75
2022/09/27 08:57:11;;;;;;;;;;;;;;;;;;8400887;27;28387;-76
2022/09/27 09:01:11;;;;;;;;;;;;;;;;;;8399411;27;28574;-74
2022/09/27 09:05:14;;;;;;;;;;;;;;;;;;8416583;27;27920;-75
2022/09/27 09:09:14;;;;;;;;;;;;;;;;;;8401262;27;29374;-76
2022/09/27 09:13:14;;;;;;;;;;;;;;;;;;8413433;27;28047;-75
2022/09/27 09:17:15;;;;;;;;;;;;;;;;;;8411989;27;27602;-76
2022/09/27 09:21:15;;;;;;;;;;;;;;;;;;8411035;27;27291;-76
2022/09/27 09:25:15;;;;;;;;;;;;;;;;;;8411682;27;27644;-73
2022/09/27 09:29:15;;;;;;;;;;;;;;;;;;8410922;27;27875;-74
2022/09/27 09:33:16;;;;;;;;;;;;;;;;;;8413418;27;27191;-76
2022/09/27 09:37:16;;;;;;;;;;;;;;;;;;8413079;27;27139;-78
2022/09/27 09:41:16;;;;;;;;;;;;;;;;;;8407725;27;27390;-77
2022/09/27 09:45:16;;;;;;;;;;;;;;;;;;8413636;27;27512;-77
2022/09/27 09:49:16;;;;;;;;;;;;;;;;;;8410908;27;27960;-77
2022/09/27 09:53:16;;;;;;;;;;;;;;;;;;8412624;27;28041;-77
2022/09/27 09:57:16;;;;;;;;;;;;;;;;;;8413502;27;28004;-76
2022/09/27 10:01:17;;;;;;;;;;;;;;;;;;8413044;27;27383;-76
2022/09/27 10:05:17;;;;;;;;;;;;;;;;;;8410796;27;28374;-76
2022/09/27 10:09:17;;;;;;;;;;;;;;;;;;8397825;27;28486;-76
2022/09/27 10:13:17;;;;;;;;;;;;;;;;;;8410151;27;27372;-76
2022/09/27 10:17:17;;;;;;;;;;;;;;;;;;8409751;27;27187;-75
2022/09/27 10:21:18;;;;;;;;;;;;;;;;;;8409054;27;28781;-75
2022/09/27 10:25:18;;;;;;;;;;;;;;;;;;8396529;27;28194;-75
2022/09/27 10:29:18;;;;;;;;;;;;;;;;;;8413428;27;27644;-74
2022/09/27 10:33:18;;;;;;;;;;;;;;;;;;8414929;27;28066;-75
2022/09/27 10:37:19;;;;;;;;;;;;;;;;;;8408957;27;27726;-75
2022/09/27 10:41:19;;;;;;;;;;;;;;;;;;8411635;27;27698;-76
2022/09/27 10:45:19;;;;;;;;;;;;;;;;;;8391909;27;29629;-76
2022/09/27 10:49:19;;;;;;;;;;;;;;;;;;8414681;27;27165;-75
2022/09/27 10:53:19;;;;;;;;;;;;;;;;;;8413639;27;27913;-76
2022/09/27 10:57:20;;;;;;;;;;;;;;;;;;8407877;27;29016;-75
2022/09/27 11:01:20;;;;;;;;;;;;;;;;;;8398013;27;28336;-76
2022/09/27 11:05:20;;;;;;;;;;;;;;;;;;8401884;27;29159;-76
2022/09/27 11:09:23;;;;;;;;;;;;;;;;;;8404217;27;29518;-76
2022/09/27 11:13:23;;;;;;;;;;;;;;;;;;8419189;27;27250;-75
2022/09/27 11:17:23;;;;;;;;;;;;;;;;;;8416483;27;28120;-76
2022/09/27 11:21:23;;;;;;;;;;;;;;;;;;8399497;27;28349;-76
2022/09/27 11:25:23;;;;;;;;;;;;;;;;;;8402044;27;28445;-75
2022/09/27 11:29:24;;;;;;;;;;;;;;;;;;8416176;27;28111;-75
2022/09/27 11:33:24;;;;;;;;;;;;;;;;;;8487947;22;28486;-75
2022/09/27 11:37:25;;;;;;;;;;;;;;;;;;8398070;27;27589;-76
2022/09/27 11:41:25;;;;;;;;;;;;;;;;;;8385861;28;28434;-76
2022/09/27 11:45:25;;;;;;;;;;;;;;;;;;8378894;28;27356;-75
2022/09/27 11:49:25;;;;;;;;;;;;;;;;;;8384185;28;28591;-75
2022/09/27 11:53:25;;;;;;;;;;;;;;;;;;8376862;28;28008;-75
2022/09/27 11:57:25;;;;;;;;;;;;;;;;;;8381840;28;28342;-76
2022/09/27 12:01:25;;;;;;;;;;;;;;;;;;8382711;28;27942;-76
2022/09/27 12:05:27;;;;;;;;;;;;;;;;;;8381442;28;27356;-75
2022/09/27 12:09:27;;;;;;;;;;;;;;;;;;8380918;28;27334;-75
2022/09/27 12:13:28;;;;;;;;;;;;;;;;;;8381583;28;27441;-76
2022/09/27 12:17:28;;;;;;;;;;;;;;;;;;8386235;28;27778;-75
2022/09/27 12:21:28;;;;;;;;;;;;;;;;;;8380921;28;27610;-76
2022/09/27 12:25:28;;;;;;;;;;;;;;;;;;8382077;28;28757;-76
2022/09/27 12:29:30;;;;;;;;;;;;;;;;;;8379165;28;27345;-75
2022/09/27 12:33:30;;;;;;;;;;;;;;;;;;8378514;28;27636;-76
2022/09/27 12:37:30;;;;;;;;;;;;;;;;;;8379462;28;27571;-76
2022/09/27 12:41:30;;;;;;;;;;;;;;;;;;8378400;28;27282;-75
2022/09/27 12:45:31;;;;;;;;;;;;;;;;;;8382592;28;27134;-75
2022/09/27 12:49:31;;;;;;;;;;;;;;;;;;8380734;28;28888;-74
2022/09/27 12:53:31;;;;;;;;;;;;;;;;;;8374981;28;28036;-75
2022/09/27 12:57:31;;;;;;;;;;;;;;;;;;8381871;28;28346;-76
2022/09/27 13:01:31;;;;;;;;;;;;;;;;;;8377498;28;27462;-75
2022/09/27 13:05:31;;;;;;;;;;;;;;;;;;8382995;28;28268;-75
2022/09/27 13:09:32;;;;;;;;;;;;;;;;;;8379810;28;28227;-76
2022/09/27 13:13:32;;;;;;;;;;;;;;;;;;8371859;28;28084;-76
2022/09/27 13:17:32;;;;;;;;;;;;;;;;;;8379848;28;28294;-76
2022/09/27 13:21:33;;;;;;;;;;;;;;;;;;8375393;28;27386;-76
2022/09/27 13:25:33;;;;;;;;;;;;;;;;;;8374877;28;28374;-76
2022/09/27 13:29:33;;;;;;;;;;;;;;;;;;8378588;28;28785;-75
2022/09/27 13:33:33;;;;;;;;;;;;;;;;;;8376315;28;29386;-77
2022/09/27 13:37:35;;;;;;;;;;;;;;;;;;8377429;28;28464;-76
2022/09/27 13:41:35;;;;;;;;;;;;;;;;;;8377139;28;29131;-76
2022/09/27 13:45:36;;;;;;;;;;;;;;;;;;8381465;28;28462;-76
2022/09/27 13:49:36;;;;;;;;;;;;;;;;;;8383001;28;28164;-76
2022/09/27 13:53:36;;;;;;;;;;;;;;;;;;8374141;28;27768;-75
2022/09/27 13:57:37;;;;;;;;;;;;;;;;;;8379028;28;28503;-76
2022/09/27 14:01:37;;;;;;;;;;;;;;;;;;8379118;28;27459;-76
2022/09/27 14:05:37;;;;;;;;;;;;;;;;;;8373742;28;28787;-75
2022/09/27 14:09:37;;;;;;;;;;;;;;;;;;8371267;28;28464;-76
2022/09/27 14:13:37;;;;;;;;;;;;;;;;;;8373029;28;27637;-76
2022/09/27 14:17:37;;;;;;;;;;;;;;;;;;8374572;28;27369;-75
2022/09/27 14:21:38;;;;;;;;;;;;;;;;;;8371936;28;28484;-75
2022/09/27 14:25:38;;;;;;;;;;;;;;;;;;8370719;28;27767;-76
2022/09/27 14:29:39;;;;;;;;;;;;;;;;;;8380869;28;28103;-75
2022/09/27 14:33:39;;;;;;;;;;;;;;;;;;8372232;28;29307;-76
2022/09/27 14:37:39;;;;;;;;;;;;;;;;;;8378341;28;28620;-75
2022/09/27 14:41:40;;;;;;;;;;;;;;;;;;8378762;28;28568;-75
2022/09/27 14:45:40;;;;;;;;;;;;;;;;;;8381356;28;27506;-75
2022/09/27 14:49:40;;;;;;;;;;;;;;;;;;8378382;28;27983;-75
2022/09/27 14:53:40;;;;;;;;;;;;;;;;;;8377575;28;27582;-76
2022/09/27 14:57:42;;;;;;;;;;;;;;;;;;8380762;28;27851;-75
2022/09/27 15:01:44;;;;;;;;;;;;;;;;;;8377034;28;28669;-76
2022/09/27 15:05:45;;;;;;;;;;;;;;;;;;8380282;28;27431;-77
2022/09/27 15:09:45;;;;;;;;;;;;;;;;;;8374450;28;27414;-76
2022/09/27 15:13:45;;;;;;;;;;;;;;;;;;8375178;28;27613;-75
2022/09/27 15:17:45;;;;;;;;;;;;;;;;;;8375896;28;27269;-75
2022/09/27 15:21:45;;;;;;;;;;;;;;;;;;8375106;28;28506;-75
2022/09/27 15:25:45;;;;;;;;;;;;;;;;;;8373018;28;28230;-75
2022/09/27 15:29:45;;;;;;;;;;;;;;;;;;8375372;28;28146;-77
2022/09/27 15:33:46;;;;;;;;;;;;;;;;;;8378914;28;28183;-75
2022/09/27 15:37:46;;;;;;;;;;;;;;;;;;8379430;28;28386;-75
2022/09/27 15:41:46;;;;;;;;;;;;;;;;;;8375801;28;28318;-75
2022/09/27 15:45:46;;;;;;;;;;;;;;;;;;8379094;28;28519;-76
2022/09/27 15:49:46;;;;;;;;;;;;;;;;;;8379194;28;27668;-74
2022/09/27 15:53:46;;;;;;;;;;;;;;;;;;8378289;28;27902;-76
2022/09/27 15:57:46;;;;;;;;;;;;;;;;;;8378722;28;28793;-76
2022/09/27 16:01:47;;;;;;;;;;;;;;;;;;8374566;28;28172;-75
2022/09/27 16:05:47;;;;;;;;;;;;;;;;;;8379480;28;28550;-75
2022/09/27 16:09:49;;;;;;;;;;;;;;;;;;8376974;28;30326;-75
2022/09/27 16:13:51;;;;;;;;;;;;;;;;;;8372535;28;27478;-75
2022/09/27 16:17:52;;;;;;;;;;;;;;;;;;8378387;28;28007;-76
2022/09/27 16:21:52;;;;;;;;;;;;;;;;;;8376087;28;28222;-76
2022/09/27 16:25:52;;;;;;;;;;;;;;;;;;8382070;28;28821;-75
2022/09/27 16:29:52;;;;;;;;;;;;;;;;;;8376977;28;27466;-76
2022/09/27 16:33:52;;;;;;;;;;;;;;;;;;8374767;28;27673;-76
2022/09/27 16:37:52;;;;;;;;;;;;;;;;;;8379489;28;28212;-76
2022/09/27 16:41:53;;;;;;;;;;;;;;;;;;8377018;28;28562;-75
2022/09/27 16:45:55;;;;;;;;;;;;;;;;;;8375630;28;27584;-75
2022/09/27 16:54:14;;;;;;;;;;;;;;;;;;8375009;28;28502;-75
2022/09/27 16:58:15;;;;;;;;;;;;;;;;;;8374977;28;28462;-76
2022/09/27 17:02:16;;;;;;;;;;;;;;;;;;8368355;28;29794;-76
2022/09/27 17:06:16;;;;;;;;;;;;;;;;;;8372665;28;27740;-75
2022/09/27 17:10:17;;;;;;;;;;;;;;;;;;8374977;28;27924;-75
2022/09/27 17:14:17;;;;;;;;;;;;;;;;;;8379037;28;30884;-74
2022/09/27 17:18:17;;;;;;;;;;;;;;;;;;8372775;28;27980;-75
2022/09/27 17:22:17;;;;;;;;;;;;;;;;;;8371658;28;27785;-76
2022/09/27 17:26:17;;;;;;;;;;;;;;;;;;8376972;28;28809;-75
2022/09/27 17:30:19;;;;;;;;;;;;;;;;;;8374435;28;28319;-75
2022/09/27 17:34:20;;;;;;;;;;;;;;;;;;8374375;28;29051;-76
2022/09/27 17:38:20;;;;;;;;;;;;;;;;;;8377647;28;27415;-75
2022/09/27 17:42:22;;;;;;;;;;;;;;;;;;8374842;28;28192;-76
2022/09/27 17:46:22;;;;;;;;;;;;;;;;;;8378186;28;27484;-76
2022/09/27 17:50:27;;;;;;;;;;;;;;;;;;8374259;28;28174;-75
2022/09/27 17:54:27;;;;;;;;;;;;;;;;;;8374348;28;28021;-76
2022/09/27 17:58:29;;;;;;;;;;;;;;;;;;8368283;28;28044;-75
2022/09/27 18:02:30;;;;;;;;;;;;;;;;;;8374645;28;28321;-75
2022/09/27 18:06:30;;;;;;;;;;;;;;;;;;8377041;28;29083;-75
2022/09/27 18:10:30;;;;;;;;;;;;;;;;;;8375422;28;27623;-75
2022/09/27 18:14:31;;;;;;;;;;;;;;;;;;8377443;28;28114;-75
2022/09/27 18:18:31;;;;;;;;;;;;;;;;;;8374558;28;27920;-74
2022/09/27 18:22:31;;;;;;;;;;;;;;;;;;8376631;28;28011;-74
2022/09/27 18:26:32;;;;;;;;;;;;;;;;;;8370367;28;28686;-75
2022/09/27 18:30:32;;;;;;;;;;;;;;;;;;8379149;28;28490;-76
2022/09/27 18:34:32;;;;;;;;;;;;;;;;;;8377065;28;28524;-75
2022/09/27 18:38:32;;;;;;;;;;;;;;;;;;8375533;28;27543;-74
2022/09/27 18:42:32;;;;;;;;;;;;;;;;;;8381763;28;27339;-74
2022/09/27 18:46:35;;;;;;;;;;;;;;;;;;8384904;28;28668;-75
2022/09/27 18:50:36;;;;;;;;;;;;;;;;;;8376465;28;28862;-75
2022/09/27 18:54:39;;;;;;;;;;;;;;;;;;8377810;28;28927;-75
2022/09/27 18:58:41;;;;;;;;;;;;;;;;;;8379981;28;29392;-77
2022/09/27 19:02:41;;;;;;;;;;;;;;;;;;8378406;28;29590;-74
2022/09/27 19:06:41;;;;;;;;;;;;;;;;;;8372654;28;27641;-75
2022/09/27 19:10:41;;;;;;;;;;;;;;;;;;8378236;28;28318;-76
2022/09/27 19:14:41;;;;;;;;;;;;;;;;;;8377974;28;27276;-74
2022/09/27 19:18:42;;;;;;;;;;;;;;;;;;8376365;28;28637;-75
2022/09/27 19:22:42;;;;;;;;;;;;;;;;;;8377984;27;28820;-75
2022/09/27 19:26:42;;;;;;;;;;;;;;;;;;8375537;28;28006;-74
2022/09/27 19:30:42;;;;;;;;;;;;;;;;;;8381921;28;27739;-75
2022/09/27 19:34:42;;;;;;;;;;;;;;;;;;8386912;28;27704;-76
2022/09/27 19:38:42;;;;;;;;;;;;;;;;;;8378329;28;28391;-74
2022/09/27 19:42:43;;;;;;;;;;;;;;;;;;8381842;28;28637;-74
2022/09/27 19:46:44;;;;;;;;;;;;;;;;;;8383665;28;28271;-75
2022/09/27 19:50:44;;;;;;;;;;;;;;;;;;8378210;28;28280;-75
2022/09/27 19:54:44;;;;;;;;;;;;;;;;;;8386772;28;29695;-75
2022/09/27 19:58:44;;;;;;;;;;;;;;;;;;8384408;28;28511;-74
2022/09/27 20:02:44;;;;;;;;;;;;;;;;;;8377910;28;27493;-74
2022/09/27 20:06:45;;;;;;;;;;;;;;;;;;8376772;28;27909;-75
2022/09/27 20:10:45;;;;;;;;;;;;;;;;;;8377691;28;27449;-75
2022/09/27 20:14:45;;;;;;;;;;;;;;;;;;8377683;28;27544;-75
2022/09/27 20:18:45;;;;;;;;;;;;;;;;;;8374217;28;28478;-76
2022/09/27 20:22:45;;;;;;;;;;;;;;;;;;8375403;28;27442;-76
2022/09/27 20:26:46;;;;;;;;;;;;;;;;;;8378709;28;28698;-74
2022/09/27 20:30:46;;;;;;;;;;;;;;;;;;8377166;28;28439;-75
2022/09/27 20:34:46;;;;;;;;;;;;;;;;;;8375649;28;28183;-75
2022/09/27 20:38:46;;;;;;;;;;;;;;;;;;8383495;28;28738;-75
2022/09/27 20:42:47;;;;;;;;;;;;;;;;;;8376750;28;28103;-75
2022/09/27 20:46:49;;;;;;;;;;;;;;;;;;8385594;28;47291;-74
2022/09/27 20:50:49;;;;;;;;;;;;;;;;;;8377035;28;29190;-76
2022/09/27 20:54:49;;;;;;;;;;;;;;;;;;8381442;28;27989;-76
2022/09/27 20:58:49;;;;;;;;;;;;;;;;;;8379713;28;27477;-75
2022/09/27 21:02:49;;;;;;;;;;;;;;;;;;8378602;28;27355;-75
2022/09/27 21:06:49;;;;;;;;;;;;;;;;;;8380597;28;27813;-76
2022/09/27 21:10:51;;;;;;;;;;;;;;;;;;8381746;28;28210;-75
2022/09/27 21:14:51;;;;;;;;;;;;;;;;;;8377970;28;28299;-75
2022/09/27 21:18:51;;;;;;;;;;;;;;;;;;8376987;28;27594;-75
2022/09/27 21:22:51;;;;;;;;;;;;;;;;;;8372981;28;27454;-74
2022/09/27 21:26:52;;;;;;;;;;;;;;;;;;8379688;28;28302;-76
2022/09/27 21:30:52;;;;;;;;;;;;;;;;;;8373731;28;28607;-76
2022/09/27 21:34:54;;;;;;;;;;;;;;;;;;8382928;28;28129;-76
2022/09/27 21:38:54;;;;;;;;;;;;;;;;;;8374283;28;28250;-75
2022/09/27 21:42:54;;;;;;;;;;;;;;;;;;8377016;28;27377;-76
2022/09/27 21:46:54;;;;;;;;;;;;;;;;;;8378869;28;28468;-76
2022/09/27 21:50:54;;;;;;;;;;;;;;;;;;8378433;28;27312;-75
2022/09/27 21:54:55;;;;;;;;;;;;;;;;;;8370316;28;28487;-75
2022/09/27 21:58:55;;;;;;;;;;;;;;;;;;8377973;28;28837;-75
2022/09/27 22:02:55;;;;;;;;;;;;;;;;;;8374357;28;28834;-75
2022/09/27 22:06:55;;;;;;;;;;;;;;;;;;8374255;28;28215;-75
2022/09/27 22:10:55;;;;;;;;;;;;;;;;;;8374014;28;28689;-75
2022/09/27 22:14:55;;;;;;;;;;;;;;;;;;8375257;28;28284;-75
2022/09/27 22:18:56;;;;;;;;;;;;;;;;;;8377209;28;28402;-74
2022/09/27 22:22:56;;;;;;;;;;;;;;;;;;8374301;28;27589;-74
2022/09/27 22:26:56;;;;;;;;;;;;;;;;;;8376068;28;27388;-76
2022/09/27 22:30:56;;;;;;;;;;;;;;;;;;8373260;28;28391;-76
2022/09/27 22:34:56;;;;;;;;;;;;;;;;;;8377468;28;28347;-76
2022/09/27 22:38:56;;;;;;;;;;;;;;;;;;8375169;28;28617;-74
2022/09/27 22:42:56;;;;;;;;;;;;;;;;;;8376825;28;28632;-74
2022/09/27 22:46:57;;;;;;;;;;;;;;;;;;8371306;28;27367;-74
2022/09/27 22:50:57;;;;;;;;;;;;;;;;;;8382025;28;28352;-75
2022/09/27 22:54:57;;;;;;;;;;;;;;;;;;8373529;28;28184;-75
2022/09/27 22:58:57;;;;;;;;;;;;;;;;;;8378882;28;29631;-75
2022/09/27 23:02:57;;;;;;;;;;;;;;;;;;8387965;28;28211;-74
2022/09/27 23:06:58;;;;;;;;;;;;;;;;;;8384566;28;27485;-75
2022/09/27 23:10:58;;;;;;;;;;;;;;;;;;8383628;28;27593;-74
2022/09/27 23:15:00;;;;;;;;;;;;;;;;;;8383313;28;28558;-75
2022/09/27 23:19:00;;;;;;;;;;;;;;;;;;8376189;28;27374;-75
2022/09/27 23:23:00;;;;;;;;;;;;;;;;;;8383717;28;27346;-75
2022/09/27 23:31:20;;;;;;;;;;;;;;;;;;8381485;28;27694;-74
2022/09/27 23:35:21;;;;;;;;;;;;;;;;;;8376068;28;27349;-74
2022/09/27 23:39:21;;;;;;;;;;;;;;;;;;8385675;28;29610;-74
2022/09/27 23:43:21;;;;;;;;;;;;;;;;;;8379545;28;28041;-75
2022/09/27 23:47:21;;;;;;;;;;;;;;;;;;8381011;28;27961;-76
2022/09/27 23:51:21;;;;;;;;;;;;;;;;;;8377839;28;27626;-75
2022/09/27 23:55:21;;;;;;;;;;;;;;;;;;8379454;28;28676;-75
2022/09/27 23:59:22;;;;;;;;;;;;;;;;;;8375946;28;28236;-74
